Meedville, Mississippi
Current Conditions -  °F | °C
As of 4:53 PM on Thursday 23 Oct 2014 (Local Time) from KMCB Reporting Station
Clear Clear  
Wind Chill: 69°   Ceiling: Unl
Heat Index: 69°   Visibility: 10mi
Dew Point: 45°   Wind: 5mph
Humidity: 42%   Direction: 360°N
Pressure: 30.06"   Gusts: NA
Location:  31.4031°N, 90.8369°W
Report Text: KMCB 232153Z AUTO 36004KT 10SM CLR 21/07 A3006 RMK AO2 SLP177 T02060072
Loading
Personal Weather Stations






























Interactive Weather Map
Tropical Storm Tracking
New forecast layout! Learn more

10-Day Weather Forecast

Advertisements
Track Severe Weather on mobile